sensor_id;sensor_type;location;lat;lon;timestamp;pressure;altitude;pressure_sealevel;temperature;humidity
44198;BME280;30157;55.512;37.764;2022-07-23T00:00:20;99931.09;;;16.31;73.60
44198;BME280;30157;55.512;37.764;2022-07-23T00:02:46;99883.09;;;15.97;73.58
44198;BME280;30157;55.512;37.764;2022-07-23T00:05:12;99938.88;;;16.34;73.50
44198;BME280;30157;55.512;37.764;2022-07-23T00:07:38;99894.84;;;16.15;73.57
44198;BME280;30157;55.512;37.764;2022-07-23T00:10:04;99937.59;;;16.49;73.26
44198;BME280;30157;55.512;37.764;2022-07-23T00:12:30;99928.94;;;16.46;73.03
44198;BME280;30157;55.512;37.764;2022-07-23T00:14:56;99900.44;;;16.34;73.00
44198;BME280;30157;55.512;37.764;2022-07-23T00:17:22;99938.41;;;16.51;72.92
44198;BME280;30157;55.512;37.764;2022-07-23T00:19:48;99939.34;;;16.48;73.13
44198;BME280;30157;55.512;37.764;2022-07-23T00:22:13;99927.31;;;16.41;73.45
44198;BME280;30157;55.512;37.764;2022-07-23T00:24:39;99938.53;;;16.46;73.69
44198;BME280;30157;55.512;37.764;2022-07-23T00:27:05;99882.72;;;16.11;73.77
44198;BME280;30157;55.512;37.764;2022-07-23T00:29:30;99936.94;;;16.40;73.97
44198;BME280;30157;55.512;37.764;2022-07-23T00:31:56;99942.19;;;16.40;73.96
44198;BME280;30157;55.512;37.764;2022-07-23T00:34:22;99939.50;;;16.42;74.11
44198;BME280;30157;55.512;37.764;2022-07-23T00:36:47;99879.41;;;16.04;73.80
44198;BME280;30157;55.512;37.764;2022-07-23T00:39:13;99894.78;;;16.17;73.78
44198;BME280;30157;55.512;37.764;2022-07-23T00:41:39;99894.09;;;16.10;73.64
44198;BME280;30157;55.512;37.764;2022-07-23T00:46:50;99924.19;;;16.28;73.36
44198;BME280;30157;55.512;37.764;2022-07-23T00:49:19;99943.25;;;16.32;73.45
44198;BME280;30157;55.512;37.764;2022-07-23T00:51:46;99939.91;;;16.28;73.67
44198;BME280;30157;55.512;37.764;2022-07-23T00:54:12;99922.69;;;16.18;73.71
44198;BME280;30157;55.512;37.764;2022-07-23T00:56:38;99920.91;;;16.20;73.58
44198;BME280;30157;55.512;37.764;2022-07-23T00:59:05;99920.97;;;16.17;73.74
44198;BME280;30157;55.512;37.764;2022-07-23T01:01:32;99939.47;;;16.10;73.94
44198;BME280;30157;55.512;37.764;2022-07-23T01:03:57;99899.13;;;15.85;74.12
44198;BME280;30157;55.512;37.764;2022-07-23T01:06:23;99939.53;;;16.09;74.13
44198;BME280;30157;55.512;37.764;2022-07-23T01:08:49;99944.72;;;16.10;74.19
44198;BME280;30157;55.512;37.764;2022-07-23T01:11:15;99939.56;;;16.06;74.26
44198;BME280;30157;55.512;37.764;2022-07-23T01:13:43;99947.38;;;16.07;74.18
44198;BME280;30157;55.512;37.764;2022-07-23T01:16:09;99933.63;;;15.99;74.78
44198;BME280;30157;55.512;37.764;2022-07-23T01:18:34;99946.66;;;16.02;74.67
44198;BME280;30157;55.512;37.764;2022-07-23T01:21:05;99919.09;;;15.89;74.54
44198;BME280;30157;55.512;37.764;2022-07-23T01:23:34;99919.81;;;15.94;74.56
44198;BME280;30157;55.512;37.764;2022-07-23T01:26:00;99915.34;;;15.98;74.35
44198;BME280;30157;55.512;37.764;2022-07-23T01:28:27;99935.25;;;16.05;74.33
44198;BME280;30157;55.512;37.764;2022-07-23T01:30:54;99923.16;;;15.99;74.49
44198;BME280;30157;55.512;37.764;2022-07-23T01:33:19;99937.84;;;16.06;74.37
44198;BME280;30157;55.512;37.764;2022-07-23T01:35:45;99939.53;;;16.07;74.24
44198;BME280;30157;55.512;37.764;2022-07-23T01:38:17;99944.75;;;16.07;74.33
44198;BME280;30157;55.512;37.764;2022-07-23T01:40:43;99937.03;;;16.03;74.39
44198;BME280;30157;55.512;37.764;2022-07-23T01:43:09;99925.63;;;16.05;74.30
44198;BME280;30157;55.512;37.764;2022-07-23T01:45:36;99930.69;;;16.13;74.22
44198;BME280;30157;55.512;37.764;2022-07-23T01:48:02;99939.28;;;16.18;74.08
44198;BME280;30157;55.512;37.764;2022-07-23T01:50:29;99940.03;;;16.22;73.92
44198;BME280;30157;55.512;37.764;2022-07-23T01:53:27;99940.69;;;16.30;73.75
44198;BME280;30157;55.512;37.764;2022-07-23T01:55:53;99872.72;;;15.92;73.43
44198;BME280;30157;55.512;37.764;2022-07-23T01:58:19;99938.78;;;16.37;73.46
44198;BME280;30157;55.512;37.764;2022-07-23T02:00:45;99937.13;;;16.33;73.19
44198;BME280;30157;55.512;37.764;2022-07-23T02:03:10;99943.44;;;16.25;73.37
44198;BME280;30157;55.512;37.764;2022-07-23T02:05:36;99923.03;;;16.05;73.70
44198;BME280;30157;55.512;37.764;2022-07-23T02:08:03;99890.53;;;15.78;73.70
44198;BME280;30157;55.512;37.764;2022-07-23T02:10:33;99914.59;;;15.92;73.77
44198;BME280;30157;55.512;37.764;2022-07-23T02:13:03;99887.00;;;15.81;74.03
44198;BME280;30157;55.512;37.764;2022-07-23T02:15:29;99924.81;;;16.03;73.93
44198;BME280;30157;55.512;37.764;2022-07-23T02:17:55;99947.00;;;16.23;73.86
44198;BME280;30157;55.512;37.764;2022-07-23T02:20:21;99936.44;;;16.26;73.67
44198;BME280;30157;55.512;37.764;2022-07-23T02:22:47;99937.38;;;16.25;73.84
44198;BME280;30157;55.512;37.764;2022-07-23T02:25:13;99939.00;;;16.27;73.81
44198;BME280;30157;55.512;37.764;2022-07-23T02:27:39;99928.69;;;16.23;74.33
44198;BME280;30157;55.512;37.764;2022-07-23T02:30:06;99878.81;;;15.94;74.36
44198;BME280;30157;55.512;37.764;2022-07-23T02:32:34;99926.84;;;16.26;74.30
44198;BME280;30157;55.512;37.764;2022-07-23T02:35:00;99945.78;;;16.36;74.09
44198;BME280;30157;55.512;37.764;2022-07-23T02:37:27;99901.78;;;16.16;74.18
44198;BME280;30157;55.512;37.764;2022-07-23T02:39:53;99948.91;;;16.51;73.81
44198;BME280;30157;55.512;37.764;2022-07-23T02:42:19;99904.81;;;16.34;73.73
44198;BME280;30157;55.512;37.764;2022-07-23T02:44:44;99944.25;;;16.60;73.86
44198;BME280;30157;55.512;37.764;2022-07-23T02:47:10;99945.09;;;16.61;73.77
44198;BME280;30157;55.512;37.764;2022-07-23T02:49:36;99952.91;;;16.64;73.60
44198;BME280;30157;55.512;37.764;2022-07-23T02:52:05;99951.88;;;16.70;73.69
44198;BME280;30157;55.512;37.764;2022-07-23T02:54:31;99902.69;;;16.48;73.53
44198;BME280;30157;55.512;37.764;2022-07-23T02:56:57;99885.03;;;16.55;72.85
44198;BME280;30157;55.512;37.764;2022-07-23T02:59:22;99943.69;;;17.12;72.67
44198;BME280;30157;55.512;37.764;2022-07-23T03:01:48;99948.34;;;17.32;71.76
44198;BME280;30157;55.512;37.764;2022-07-23T03:04:14;99946.66;;;17.58;70.98
44198;BME280;30157;55.512;37.764;2022-07-23T03:06:41;99954.91;;;17.74;70.71
44198;BME280;30157;55.512;37.764;2022-07-23T03:09:07;99900.31;;;17.58;70.42
44198;BME280;30157;55.512;37.764;2022-07-23T03:11:33;99956.78;;;18.24;69.66
44198;BME280;30157;55.512;37.764;2022-07-23T03:13:59;99954.00;;;18.54;69.09
44198;BME280;30157;55.512;37.764;2022-07-23T03:16:24;99946.00;;;18.80;68.20
44198;BME280;30157;55.512;37.764;2022-07-23T03:18:50;99957.41;;;19.06;67.60
44198;BME280;30157;55.512;37.764;2022-07-23T03:21:16;99952.84;;;19.34;67.04
44198;BME280;30157;55.512;37.764;2022-07-23T03:23:42;99946.84;;;19.52;66.68
44198;BME280;30157;55.512;37.764;2022-07-23T03:26:07;99947.41;;;19.83;66.21
44198;BME280;30157;55.512;37.764;2022-07-23T03:28:33;99943.94;;;20.03;65.06
44198;BME280;30157;55.512;37.764;2022-07-23T03:30:59;99947.75;;;20.37;64.40
44198;BME280;30157;55.512;37.764;2022-07-23T03:33:25;99950.84;;;20.67;63.61
44198;BME280;30157;55.512;37.764;2022-07-23T03:35:52;99909.88;;;20.60;62.85
44198;BME280;30157;55.512;37.764;2022-07-23T03:38:23;99914.13;;;20.83;62.88
44198;BME280;30157;55.512;37.764;2022-07-23T03:40:49;99954.63;;;21.20;62.66
44198;BME280;30157;55.512;37.764;2022-07-23T03:43:15;99921.94;;;21.23;61.61
44198;BME280;30157;55.512;37.764;2022-07-23T03:45:41;99941.50;;;21.57;61.17
44198;BME280;30157;55.512;37.764;2022-07-23T03:48:07;99957.06;;;21.80;60.87
44198;BME280;30157;55.512;37.764;2022-07-23T03:50:33;99931.13;;;21.89;60.20
44198;BME280;30157;55.512;37.764;2022-07-23T03:53:00;99951.66;;;22.19;59.82
44198;BME280;30157;55.512;37.764;2022-07-23T03:55:26;99920.53;;;22.24;59.10
44198;BME280;30157;55.512;37.764;2022-07-23T03:57:51;99950.63;;;22.56;59.07
44198;BME280;30157;55.512;37.764;2022-07-23T04:00:17;99901.19;;;22.41;58.45
44198;BME280;30157;55.512;37.764;2022-07-23T04:02:45;99951.78;;;22.84;58.25
44198;BME280;30157;55.512;37.764;2022-07-23T04:05:12;99955.25;;;23.02;57.78
44198;BME280;30157;55.512;37.764;2022-07-23T04:07:39;99947.50;;;23.15;57.63
44198;BME280;30157;55.512;37.764;2022-07-23T04:10:07;99945.09;;;23.10;58.07
44198;BME280;30157;55.512;37.764;2022-07-23T04:12:33;99954.09;;;23.40;57.82
44198;BME280;30157;55.512;37.764;2022-07-23T04:14:59;99954.34;;;23.67;57.39
44198;BME280;30157;55.512;37.764;2022-07-23T04:17:24;99916.31;;;23.68;56.92
44198;BME280;30157;55.512;37.764;2022-07-23T04:19:51;99936.22;;;24.06;57.17
44198;BME280;30157;55.512;37.764;2022-07-23T04:22:21;99947.38;;;24.41;56.74
44198;BME280;30157;55.512;37.764;2022-07-23T04:24:46;99948.09;;;24.74;55.80
44198;BME280;30157;55.512;37.764;2022-07-23T04:27:12;99917.75;;;24.78;55.32
44198;BME280;30157;55.512;37.764;2022-07-23T04:29:39;99908.38;;;24.87;55.02
44198;BME280;30157;55.512;37.764;2022-07-23T04:32:05;99945.25;;;25.33;54.59
44198;BME280;30157;55.512;37.764;2022-07-23T04:34:30;99950.88;;;25.70;54.24
44198;BME280;30157;55.512;37.764;2022-07-23T04:36:58;99944.00;;;25.93;53.46
44198;BME280;30157;55.512;37.764;2022-07-23T04:39:24;99949.91;;;26.11;53.47
44198;BME280;30157;55.512;37.764;2022-07-23T04:41:50;99936.63;;;26.37;52.73
44198;BME280;30157;55.512;37.764;2022-07-23T04:44:16;99939.28;;;26.63;52.43
44198;BME280;30157;55.512;37.764;2022-07-23T04:46:42;99877.59;;;26.45;51.74
44198;BME280;30157;55.512;37.764;2022-07-23T04:49:08;99935.13;;;26.97;51.28
44198;BME280;30157;55.512;37.764;2022-07-23T04:51:34;99944.63;;;27.26;50.93
44198;BME280;30157;55.512;37.764;2022-07-23T04:54:00;99941.50;;;27.45;50.57
44198;BME280;30157;55.512;37.764;2022-07-23T04:56:26;99930.44;;;27.62;49.87
44198;BME280;30157;55.512;37.764;2022-07-23T04:58:52;99932.50;;;27.94;48.98
44198;BME280;30157;55.512;37.764;2022-07-23T05:01:17;99897.59;;;27.86;48.28
44198;BME280;30157;55.512;37.764;2022-07-23T05:03:44;99937.50;;;28.35;47.13
44198;BME280;30157;55.512;37.764;2022-07-23T05:06:10;99938.84;;;28.52;46.85
44198;BME280;30157;55.512;37.764;2022-07-23T05:08:36;99938.63;;;28.66;46.12
44198;BME280;30157;55.512;37.764;2022-07-23T05:11:01;99928.81;;;28.89;44.46
44198;BME280;30157;55.512;37.764;2022-07-23T05:13:28;99903.94;;;28.77;44.29
44198;BME280;30157;55.512;37.764;2022-07-23T05:15:54;99931.34;;;29.02;43.52
44198;BME280;30157;55.512;37.764;2022-07-23T05:18:20;99929.63;;;29.12;42.61
44198;BME280;30157;55.512;37.764;2022-07-23T05:20:46;99920.88;;;29.10;43.30
44198;BME280;30157;55.512;37.764;2022-07-23T05:23:19;99935.19;;;29.21;43.48
44198;BME280;30157;55.512;37.764;2022-07-23T05:25:45;99910.31;;;29.20;42.94
44198;BME280;30157;55.512;37.764;2022-07-23T05:28:11;99935.66;;;29.48;42.16
44198;BME280;30157;55.512;37.764;2022-07-23T05:30:37;99933.66;;;29.62;41.80
44198;BME280;30157;55.512;37.764;2022-07-23T05:33:06;99886.03;;;29.56;41.34
44198;BME280;30157;55.512;37.764;2022-07-23T05:35:33;99941.56;;;29.96;41.28
44198;BME280;30157;55.512;37.764;2022-07-23T05:38:14;99925.06;;;30.12;39.79
44198;BME280;30157;55.512;37.764;2022-07-23T05:40:40;99887.91;;;29.97;39.99
44198;BME280;30157;55.512;37.764;2022-07-23T05:43:06;99932.84;;;30.25;39.60
44198;BME280;30157;55.512;37.764;2022-07-23T05:45:32;99908.94;;;30.33;39.30
44198;BME280;30157;55.512;37.764;2022-07-23T05:48:00;99927.59;;;30.65;39.53
44198;BME280;30157;55.512;37.764;2022-07-23T05:50:41;99925.97;;;30.84;39.47
44198;BME280;30157;55.512;37.764;2022-07-23T05:53:23;99929.06;;;30.79;38.97
44198;BME280;30157;55.512;37.764;2022-07-23T05:55:58;99927.56;;;30.96;38.26
44198;BME280;30157;55.512;37.764;2022-07-23T05:58:24;99908.00;;;31.06;38.17
44198;BME280;30157;55.512;37.764;2022-07-23T06:00:49;99911.44;;;31.27;38.58
44198;BME280;30157;55.512;37.764;2022-07-23T06:03:15;99888.31;;;31.36;37.64
44198;BME280;30157;55.512;37.764;2022-07-23T06:05:43;99910.09;;;31.72;37.36
44198;BME280;30157;55.512;37.764;2022-07-23T06:08:09;99924.03;;;31.95;36.63
44198;BME280;30157;55.512;37.764;2022-07-23T06:10:35;99919.78;;;32.22;36.13
44198;BME280;30157;55.512;37.764;2022-07-23T06:13:01;99924.00;;;32.15;35.66
44198;BME280;30157;55.512;37.764;2022-07-23T06:15:29;99920.78;;;32.11;35.62
44198;BME280;30157;55.512;37.764;2022-07-23T06:17:56;99912.03;;;31.99;35.72
44198;BME280;30157;55.512;37.764;2022-07-23T06:20:22;99882.25;;;31.93;35.89
44198;BME280;30157;55.512;37.764;2022-07-23T06:22:48;99864.25;;;32.13;35.52
44198;BME280;30157;55.512;37.764;2022-07-23T06:25:13;99908.00;;;32.43;35.97
44198;BME280;30157;55.512;37.764;2022-07-23T06:27:39;99839.13;;;32.14;36.12
44198;BME280;30157;55.512;37.764;2022-07-23T06:30:05;99884.06;;;32.49;35.77
44198;BME280;30157;55.512;37.764;2022-07-23T06:32:33;99907.69;;;32.83;35.40
44198;BME280;30157;55.512;37.764;2022-07-23T06:34:59;99896.75;;;32.95;35.28
44198;BME280;30157;55.512;37.764;2022-07-23T06:37:25;99878.88;;;33.04;34.48
44198;BME280;30157;55.512;37.764;2022-07-23T06:39:50;99909.88;;;33.26;34.16
44198;BME280;30157;55.512;37.764;2022-07-23T06:42:16;99898.13;;;33.27;33.75
44198;BME280;30157;55.512;37.764;2022-07-23T06:44:43;99905.06;;;33.20;33.40
44198;BME280;30157;55.512;37.764;2022-07-23T06:47:09;99824.19;;;32.67;33.53
44198;BME280;30157;55.512;37.764;2022-07-23T06:49:35;99890.72;;;33.11;33.08
44198;BME280;30157;55.512;37.764;2022-07-23T06:52:01;99875.81;;;32.98;33.47
44198;BME280;30157;55.512;37.764;2022-07-23T06:54:27;99900.97;;;33.25;33.38
44198;BME280;30157;55.512;37.764;2022-07-23T06:56:53;99868.69;;;33.25;33.36
44198;BME280;30157;55.512;37.764;2022-07-23T06:59:19;99874.41;;;33.40;32.55
44198;BME280;30157;55.512;37.764;2022-07-23T07:01:45;99911.03;;;33.59;32.60
44198;BME280;30157;55.512;37.764;2022-07-23T07:04:11;99901.41;;;33.75;32.11
44198;BME280;30157;55.512;37.764;2022-07-23T07:06:37;99901.44;;;33.93;32.68
44198;BME280;30157;55.512;37.764;2022-07-23T07:09:02;99892.25;;;34.04;32.13
44198;BME280;30157;55.512;37.764;2022-07-23T07:11:28;99892.97;;;34.32;32.06
44198;BME280;30157;55.512;37.764;2022-07-23T07:13:54;99896.31;;;34.69;31.56
44198;BME280;30157;55.512;37.764;2022-07-23T07:16:19;99892.47;;;34.71;30.95
44198;BME280;30157;55.512;37.764;2022-07-23T07:18:45;99907.72;;;34.89;31.35
44198;BME280;30157;55.512;37.764;2022-07-23T07:21:11;99909.59;;;34.96;30.19
44198;BME280;30157;55.512;37.764;2022-07-23T07:23:37;99898.25;;;34.85;29.56
44198;BME280;30157;55.512;37.764;2022-07-23T07:26:03;99901.56;;;34.78;30.04
44198;BME280;30157;55.512;37.764;2022-07-23T07:28:28;99899.88;;;34.77;29.97
44198;BME280;30157;55.512;37.764;2022-07-23T07:30:55;99896.94;;;34.97;29.80
44198;BME280;30157;55.512;37.764;2022-07-23T07:33:23;99862.63;;;34.64;29.34
44198;BME280;30157;55.512;37.764;2022-07-23T07:35:49;99853.47;;;34.57;28.84
44198;BME280;30157;55.512;37.764;2022-07-23T07:38:14;99898.13;;;35.03;29.21
44198;BME280;30157;55.512;37.764;2022-07-23T07:40:40;99904.25;;;35.21;29.37
44198;BME280;30157;55.512;37.764;2022-07-23T07:43:08;99899.78;;;35.38;28.57
44198;BME280;30157;55.512;37.764;2022-07-23T07:45:36;99864.44;;;34.98;28.46
44198;BME280;30157;55.512;37.764;2022-07-23T07:48:02;99862.09;;;35.12;29.06
44198;BME280;30157;55.512;37.764;2022-07-23T07:50:31;99896.69;;;35.25;29.05
44198;BME280;30157;55.512;37.764;2022-07-23T07:52:56;99857.53;;;35.21;28.49
44198;BME280;30157;55.512;37.764;2022-07-23T07:55:22;99897.91;;;35.55;28.69
44198;BME280;30157;55.512;37.764;2022-07-23T07:57:48;99864.88;;;35.61;27.72
44198;BME280;30157;55.512;37.764;2022-07-23T08:00:13;99877.50;;;35.94;27.24
44198;BME280;30157;55.512;37.764;2022-07-23T08:02:44;99909.69;;;36.28;27.27
44198;BME280;30157;55.512;37.764;2022-07-23T08:05:10;99895.28;;;36.44;26.91
44198;BME280;30157;55.512;37.764;2022-07-23T08:07:46;99892.19;;;36.64;26.82
44198;BME280;30157;55.512;37.764;2022-07-23T08:10:15;99912.44;;;36.68;26.20
44198;BME280;30157;55.512;37.764;2022-07-23T08:12:45;99910.38;;;36.78;26.26
44198;BME280;30157;55.512;37.764;2022-07-23T08:15:13;99904.69;;;37.05;25.98
44198;BME280;30157;55.512;37.764;2022-07-23T08:17:39;99901.28;;;37.11;25.77
44198;BME280;30157;55.512;37.764;2022-07-23T08:20:06;99902.56;;;36.92;26.86
44198;BME280;30157;55.512;37.764;2022-07-23T08:22:46;99889.59;;;36.79;25.68
44198;BME280;30157;55.512;37.764;2022-07-23T08:25:13;99887.44;;;36.74;26.22
44198;BME280;30157;55.512;37.764;2022-07-23T08:27:39;99902.28;;;36.78;26.69
44198;BME280;30157;55.512;37.764;2022-07-23T08:30:08;99877.81;;;36.72;26.27
44198;BME280;30157;55.512;37.764;2022-07-23T08:32:51;99897.13;;;37.00;26.40
44198;BME280;30157;55.512;37.764;2022-07-23T08:35:30;99898.16;;;37.22;25.87
44198;BME280;30157;55.512;37.764;2022-07-23T08:37:57;99903.47;;;37.62;25.76
44198;BME280;30157;55.512;37.764;2022-07-23T08:40:28;99862.31;;;37.66;25.10
44198;BME280;30157;55.512;37.764;2022-07-23T08:42:54;99850.00;;;37.18;23.94
44198;BME280;30157;55.512;37.764;2022-07-23T08:45:22;99852.53;;;37.19;24.33
44198;BME280;30157;55.512;37.764;2022-07-23T08:47:50;99879.97;;;37.08;24.73
44198;BME280;30157;55.512;37.764;2022-07-23T08:50:16;99851.31;;;37.30;25.17
44198;BME280;30157;55.512;37.764;2022-07-23T08:52:41;99888.25;;;37.61;24.59
44198;BME280;30157;55.512;37.764;2022-07-23T08:55:08;99884.09;;;37.73;24.67
44198;BME280;30157;55.512;37.764;2022-07-23T08:57:34;99878.19;;;37.70;24.46
44198;BME280;30157;55.512;37.764;2022-07-23T09:00:00;99839.91;;;37.11;25.51
44198;BME280;30157;55.512;37.764;2022-07-23T09:02:26;99845.69;;;36.29;26.08
44198;BME280;30157;55.512;37.764;2022-07-23T09:04:51;99846.50;;;36.86;25.87
44198;BME280;30157;55.512;37.764;2022-07-23T09:07:18;99881.16;;;37.60;24.22
44198;BME280;30157;55.512;37.764;2022-07-23T09:09:43;99875.28;;;36.62;25.34
44198;BME280;30157;55.512;37.764;2022-07-23T09:12:10;99878.09;;;35.13;27.22
44198;BME280;30157;55.512;37.764;2022-07-23T09:14:42;99873.59;;;33.84;29.04
44198;BME280;30157;55.512;37.764;2022-07-23T09:17:13;99865.28;;;33.05;29.95
44198;BME280;30157;55.512;37.764;2022-07-23T09:19:40;99863.06;;;34.17;29.26
44198;BME280;30157;55.512;37.764;2022-07-23T09:22:24;99772.16;;;33.58;29.88
44198;BME280;30157;55.512;37.764;2022-07-23T09:28:04;99872.19;;;36.81;26.19
44198;BME280;30157;55.512;37.764;2022-07-23T09:30:33;99854.16;;;37.28;25.86
44198;BME280;30157;55.512;37.764;2022-07-23T09:33:05;99868.56;;;38.05;24.35
44198;BME280;30157;55.512;37.764;2022-07-23T09:35:55;99858.41;;;38.52;23.70
44198;BME280;30157;55.512;37.764;2022-07-23T09:38:23;99848.75;;;38.79;23.20
44198;BME280;30157;55.512;37.764;2022-07-23T09:41:09;99855.84;;;38.80;23.20
44198;BME280;30157;55.512;37.764;2022-07-23T09:43:35;99851.78;;;38.55;22.83
44198;BME280;30157;55.512;37.764;2022-07-23T09:46:26;99847.19;;;38.40;22.96
44198;BME280;30157;55.512;37.764;2022-07-23T09:48:54;99843.97;;;38.66;23.18
44198;BME280;30157;55.512;37.764;2022-07-23T09:51:24;99845.84;;;38.81;22.75
44198;BME280;30157;55.512;37.764;2022-07-23T09:53:49;99834.56;;;38.18;22.76
44198;BME280;30157;55.512;37.764;2022-07-23T09:56:15;99824.31;;;36.03;25.23
44198;BME280;30157;55.512;37.764;2022-07-23T09:58:43;99777.13;;;33.97;27.82
44198;BME280;30157;55.512;37.764;2022-07-23T10:01:29;99846.09;;;34.59;28.13
44198;BME280;30157;55.512;37.764;2022-07-23T10:03:55;99845.41;;;36.15;26.70
44198;BME280;30157;55.512;37.764;2022-07-23T10:06:47;99842.94;;;37.40;25.27
44198;BME280;30157;55.512;37.764;2022-07-23T10:09:38;99830.75;;;38.12;23.67
44198;BME280;30157;55.512;37.764;2022-07-23T10:12:19;99840.19;;;38.31;23.88
44198;BME280;30157;55.512;37.764;2022-07-23T10:15:06;99808.81;;;37.92;23.39
44198;BME280;30157;55.512;37.764;2022-07-23T10:17:34;99841.00;;;38.02;23.75
44198;BME280;30157;55.512;37.764;2022-07-23T10:20:00;99811.81;;;38.27;23.58
44198;BME280;30157;55.512;37.764;2022-07-23T10:22:28;99831.59;;;38.94;22.31
44198;BME280;30157;55.512;37.764;2022-07-23T10:25:24;99835.56;;;38.76;22.59
44198;BME280;30157;55.512;37.764;2022-07-23T10:35:46;99826.72;;;38.53;23.08
44198;BME280;30157;55.512;37.764;2022-07-23T10:38:13;99827.22;;;37.73;23.52
44198;BME280;30157;55.512;37.764;2022-07-23T10:40:59;99815.25;;;36.83;24.59
44198;BME280;30157;55.512;37.764;2022-07-23T10:43:26;99810.72;;;36.44;25.17
44198;BME280;30157;55.512;37.764;2022-07-23T10:45:53;99814.19;;;36.53;24.48
44198;BME280;30157;55.512;37.764;2022-07-23T10:48:24;99814.31;;;36.20;24.75
44198;BME280;30157;55.512;37.764;2022-07-23T10:51:14;99810.84;;;36.51;24.17
44198;BME280;30157;55.512;37.764;2022-07-23T10:59:15;99793.94;;;38.03;22.13
44198;BME280;30157;55.512;37.764;2022-07-23T11:01:41;99785.72;;;38.26;22.04
44198;BME280;30157;55.512;37.764;2022-07-23T11:04:06;99792.50;;;37.62;23.07
44198;BME280;30157;55.512;37.764;2022-07-23T11:09:27;99766.19;;;35.67;24.71
44198;BME280;30157;55.512;37.764;2022-07-23T11:15:07;99788.19;;;37.53;22.20
44198;BME280;30157;55.512;37.764;2022-07-23T11:22:35;99774.00;;;38.55;21.52
44198;BME280;30157;55.512;37.764;2022-07-23T11:25:01;99785.59;;;38.49;21.08
44198;BME280;30157;55.512;37.764;2022-07-23T11:27:43;99760.69;;;38.39;21.60
44198;BME280;30157;55.512;37.764;2022-07-23T11:30:23;99770.94;;;38.43;22.50
44198;BME280;30157;55.512;37.764;2022-07-23T11:35:31;99730.53;;;38.27;22.04
44198;BME280;30157;55.512;37.764;2022-07-23T11:38:23;99774.59;;;38.36;22.75
44198;BME280;30157;55.512;37.764;2022-07-23T11:40:51;99733.66;;;38.45;22.33
44198;BME280;30157;55.512;37.764;2022-07-23T11:43:19;99768.66;;;36.73;24.24
44198;BME280;30157;55.512;37.764;2022-07-23T11:45:57;99767.22;;;35.08;25.93
44198;BME280;30157;55.512;37.764;2022-07-23T11:48:28;99767.13;;;36.47;24.55
44198;BME280;30157;55.512;37.764;2022-07-23T11:50:55;99718.28;;;37.56;23.00
44198;BME280;30157;55.512;37.764;2022-07-23T11:55:48;99765.97;;;39.05;22.49
44198;BME280;30157;55.512;37.764;2022-07-23T11:58:14;99776.53;;;39.43;22.14
44198;BME280;30157;55.512;37.764;2022-07-23T12:00:40;99767.44;;;39.58;21.21
44198;BME280;30157;55.512;37.764;2022-07-23T12:03:07;99762.97;;;39.72;20.78
44198;BME280;30157;55.512;37.764;2022-07-23T12:05:35;99760.41;;;39.63;20.85
44198;BME280;30157;55.512;37.764;2022-07-23T12:08:04;99768.75;;;39.62;20.42
44198;BME280;30157;55.512;37.764;2022-07-23T12:10:41;99756.66;;;39.64;20.77
44198;BME280;30157;55.512;37.764;2022-07-23T12:13:16;99710.94;;;39.11;20.91
44198;BME280;30157;55.512;37.764;2022-07-23T12:15:43;99747.94;;;39.47;20.69
44198;BME280;30157;55.512;37.764;2022-07-23T12:18:11;99728.41;;;39.02;20.99
44198;BME280;30157;55.512;37.764;2022-07-23T12:20:45;99728.88;;;38.69;21.42
44198;BME280;30157;55.512;37.764;2022-07-23T12:23:15;99729.38;;;38.36;22.11
44198;BME280;30157;55.512;37.764;2022-07-23T12:25:43;99741.84;;;37.86;22.30
44198;BME280;30157;55.512;37.764;2022-07-23T12:30:43;99707.59;;;37.25;23.18
44198;BME280;30157;55.512;37.764;2022-07-23T12:33:23;99733.88;;;37.54;23.23
44198;BME280;30157;55.512;37.764;2022-07-23T12:35:59;99716.53;;;36.64;23.80
44198;BME280;30157;55.512;37.764;2022-07-23T12:38:40;99734.81;;;36.54;24.26
44198;BME280;30157;55.512;37.764;2022-07-23T12:41:08;99638.25;;;35.53;24.56
44198;BME280;30157;55.512;37.764;2022-07-23T12:43:41;99697.91;;;35.58;25.33
44198;BME280;30157;55.512;37.764;2022-07-23T12:46:18;99724.59;;;35.12;26.59
44198;BME280;30157;55.512;37.764;2022-07-23T12:53:46;99730.44;;;34.15;27.51
44198;BME280;30157;55.512;37.764;2022-07-23T12:56:15;99730.47;;;33.89;28.08
44198;BME280;30157;55.512;37.764;2022-07-23T12:58:46;99724.75;;;33.83;27.75
44198;BME280;30157;55.512;37.764;2022-07-23T13:06:35;99689.13;;;33.11;29.17
44198;BME280;30157;55.512;37.764;2022-07-23T13:09:08;99719.56;;;33.20;28.80
44198;BME280;30157;55.512;37.764;2022-07-23T13:11:34;99672.56;;;32.79;29.35
44198;BME280;30157;55.512;37.764;2022-07-23T13:14:01;99721.84;;;32.88;29.23
44198;BME280;30157;55.512;37.764;2022-07-23T13:16:30;99680.69;;;32.52;29.97
44198;BME280;30157;55.512;37.764;2022-07-23T13:18:58;99717.75;;;32.66;30.02
44198;BME280;30157;55.512;37.764;2022-07-23T13:21:28;99717.81;;;32.56;30.71
44198;BME280;30157;55.512;37.764;2022-07-23T13:23:54;99673.69;;;32.13;29.57
44198;BME280;30157;55.512;37.764;2022-07-23T13:26:23;99695.91;;;32.05;30.19
44198;BME280;30157;55.512;37.764;2022-07-23T13:28:49;99701.50;;;31.94;30.22
44198;BME280;30157;55.512;37.764;2022-07-23T13:31:16;99709.44;;;31.86;30.31
44198;BME280;30157;55.512;37.764;2022-07-23T13:33:42;99702.16;;;31.68;30.74
44198;BME280;30157;55.512;37.764;2022-07-23T13:36:08;99702.28;;;31.76;30.38
44198;BME280;30157;55.512;37.764;2022-07-23T13:38:34;99689.84;;;31.75;31.15
44198;BME280;30157;55.512;37.764;2022-07-23T13:41:00;99705.34;;;31.81;31.07
44198;BME280;30157;55.512;37.764;2022-07-23T13:43:28;99695.06;;;31.77;30.89